sensor_id;sensor_type;location;lat;lon;timestamp;temperature;humidity
5226;DHT22;2632;51.666;7.146;2024-03-29T00:00:26;9.70;79.40
5226;DHT22;2632;51.666;7.146;2024-03-29T00:02:52;9.70;77.90
5226;DHT22;2632;51.666;7.146;2024-03-29T00:05:17;9.70;78.40
5226;DHT22;2632;51.666;7.146;2024-03-29T00:07:44;9.90;79.30
5226;DHT22;2632;51.666;7.146;2024-03-29T00:10:09;9.90;78.10
5226;DHT22;2632;51.666;7.146;2024-03-29T00:12:35;9.80;77.50
5226;DHT22;2632;51.666;7.146;2024-03-29T00:15:01;9.70;78.00
5226;DHT22;2632;51.666;7.146;2024-03-29T00:17:28;9.70;77.50
5226;DHT22;2632;51.666;7.146;2024-03-29T00:19:54;9.70;78.00
5226;DHT22;2632;51.666;7.146;2024-03-29T00:22:19;9.70;77.80
5226;DHT22;2632;51.666;7.146;2024-03-29T00:24:45;9.80;77.70
5226;DHT22;2632;51.666;7.146;2024-03-29T00:27:11;14.50;80.70
5226;DHT22;2632;51.666;7.146;2024-03-29T00:29:36;9.70;77.40
5226;DHT22;2632;51.666;7.146;2024-03-29T00:32:02;9.80;78.10
5226;DHT22;2632;51.666;7.146;2024-03-29T00:34:28;9.70;77.80
5226;DHT22;2632;51.666;7.146;2024-03-29T00:36:53;9.70;78.40
5226;DHT22;2632;51.666;7.146;2024-03-29T00:39:19;9.70;78.90
5226;DHT22;2632;51.666;7.146;2024-03-29T00:41:45;9.70;77.50
5226;DHT22;2632;51.666;7.146;2024-03-29T00:44:11;9.60;77.00
5226;DHT22;2632;51.666;7.146;2024-03-29T00:46:37;9.60;77.00
5226;DHT22;2632;51.666;7.146;2024-03-29T00:49:03;9.70;76.90
5226;DHT22;2632;51.666;7.146;2024-03-29T00:51:28;9.70;76.80
5226;DHT22;2632;51.666;7.146;2024-03-29T00:53:55;9.60;77.70
5226;DHT22;2632;51.666;7.146;2024-03-29T00:56:20;9.70;78.10
5226;DHT22;2632;51.666;7.146;2024-03-29T00:58:46;9.70;76.60
5226;DHT22;2632;51.666;7.146;2024-03-29T01:01:12;9.70;77.20
5226;DHT22;2632;51.666;7.146;2024-03-29T01:03:37;9.70;77.30
5226;DHT22;2632;51.666;7.146;2024-03-29T01:06:03;9.70;77.00
5226;DHT22;2632;51.666;7.146;2024-03-29T01:08:29;9.70;76.80
5226;DHT22;2632;51.666;7.146;2024-03-29T01:10:55;9.80;78.00
5226;DHT22;2632;51.666;7.146;2024-03-29T01:13:21;9.80;76.90
5226;DHT22;2632;51.666;7.146;2024-03-29T01:15:46;9.80;76.70
5226;DHT22;2632;51.666;7.146;2024-03-29T01:18:12;9.80;77.10
5226;DHT22;2632;51.666;7.146;2024-03-29T01:20:38;9.90;76.80
5226;DHT22;2632;51.666;7.146;2024-03-29T01:23:04;9.90;76.60
5226;DHT22;2632;51.666;7.146;2024-03-29T01:25:29;9.90;77.40
5226;DHT22;2632;51.666;7.146;2024-03-29T01:27:55;9.90;76.60
5226;DHT22;2632;51.666;7.146;2024-03-29T01:30:21;9.90;76.40
5226;DHT22;2632;51.666;7.146;2024-03-29T01:32:47;9.90;76.90
5226;DHT22;2632;51.666;7.146;2024-03-29T01:35:13;10.00;76.60
5226;DHT22;2632;51.666;7.146;2024-03-29T01:37:38;9.90;76.70
5226;DHT22;2632;51.666;7.146;2024-03-29T01:40:05;10.00;78.00
5226;DHT22;2632;51.666;7.146;2024-03-29T01:42:31;10.00;78.20
5226;DHT22;2632;51.666;7.146;2024-03-29T01:44:56;9.80;75.80
5226;DHT22;2632;51.666;7.146;2024-03-29T01:47:22;9.80;76.50
5226;DHT22;2632;51.666;7.146;2024-03-29T01:49:48;10.00;77.70
5226;DHT22;2632;51.666;7.146;2024-03-29T01:52:15;10.10;77.10
5226;DHT22;2632;51.666;7.146;2024-03-29T01:54:42;10.00;76.20
5226;DHT22;2632;51.666;7.146;2024-03-29T01:57:10;10.00;75.90
5226;DHT22;2632;51.666;7.146;2024-03-29T01:59:37;10.00;76.60
5226;DHT22;2632;51.666;7.146;2024-03-29T02:02:04;10.00;76.00
5226;DHT22;2632;51.666;7.146;2024-03-29T02:04:30;10.00;76.60
5226;DHT22;2632;51.666;7.146;2024-03-29T02:06:56;9.90;75.30
5226;DHT22;2632;51.666;7.146;2024-03-29T02:09:22;10.00;75.50
5226;DHT22;2632;51.666;7.146;2024-03-29T02:11:48;10.00;75.80
5226;DHT22;2632;51.666;7.146;2024-03-29T02:14:13;10.10;76.20
5226;DHT22;2632;51.666;7.146;2024-03-29T02:16:39;10.10;75.50
5226;DHT22;2632;51.666;7.146;2024-03-29T02:19:05;10.10;75.00
5226;DHT22;2632;51.666;7.146;2024-03-29T02:21:33;10.00;74.80
5226;DHT22;2632;51.666;7.146;2024-03-29T02:24:08;10.10;75.20
5226;DHT22;2632;51.666;7.146;2024-03-29T02:26:35;10.10;74.90
5226;DHT22;2632;51.666;7.146;2024-03-29T02:29:07;10.10;73.80
5226;DHT22;2632;51.666;7.146;2024-03-29T02:31:33;10.20;74.20
5226;DHT22;2632;51.666;7.146;2024-03-29T02:33:59;10.10;74.90
5226;DHT22;2632;51.666;7.146;2024-03-29T02:36:25;10.20;74.20
5226;DHT22;2632;51.666;7.146;2024-03-29T02:38:50;10.20;74.20
5226;DHT22;2632;51.666;7.146;2024-03-29T02:41:16;10.20;74.20
5226;DHT22;2632;51.666;7.146;2024-03-29T02:43:42;10.20;74.20
5226;DHT22;2632;51.666;7.146;2024-03-29T02:46:08;10.20;74.20
5226;DHT22;2632;51.666;7.146;2024-03-29T02:48:33;10.50;75.30
5226;DHT22;2632;51.666;7.146;2024-03-29T02:50:59;10.30;74.10
5226;DHT22;2632;51.666;7.146;2024-03-29T02:53:25;10.30;74.80
5226;DHT22;2632;51.666;7.146;2024-03-29T02:55:51;10.30;74.10
5226;DHT22;2632;51.666;7.146;2024-03-29T02:58:16;10.40;74.60
5226;DHT22;2632;51.666;7.146;2024-03-29T03:00:42;10.30;74.30
5226;DHT22;2632;51.666;7.146;2024-03-29T03:03:08;10.50;74.10
5226;DHT22;2632;51.666;7.146;2024-03-29T03:05:34;10.40;74.60
5226;DHT22;2632;51.666;7.146;2024-03-29T03:07:59;10.50;74.40
5226;DHT22;2632;51.666;7.146;2024-03-29T03:10:47;10.40;73.30
5226;DHT22;2632;51.666;7.146;2024-03-29T03:13:28;10.90;75.50
5226;DHT22;2632;51.666;7.146;2024-03-29T03:15:55;9.40;73.40
5226;DHT22;2632;51.666;7.146;2024-03-29T03:18:21;10.50;72.70
5226;DHT22;2632;51.666;7.146;2024-03-29T03:20:51;10.50;73.10
5226;DHT22;2632;51.666;7.146;2024-03-29T03:23:17;10.60;73.90
5226;DHT22;2632;51.666;7.146;2024-03-29T03:25:56;10.60;73.30
5226;DHT22;2632;51.666;7.146;2024-03-29T03:28:22;10.60;73.50
5226;DHT22;2632;51.666;7.146;2024-03-29T03:30:52;10.60;74.80
5226;DHT22;2632;51.666;7.146;2024-03-29T03:33:18;10.70;75.20
5226;DHT22;2632;51.666;7.146;2024-03-29T03:35:45;10.70;76.80
5226;DHT22;2632;51.666;7.146;2024-03-29T03:38:11;10.70;76.60
5226;DHT22;2632;51.666;7.146;2024-03-29T03:40:37;10.70;75.10
5226;DHT22;2632;51.666;7.146;2024-03-29T03:43:06;10.70;76.10
5226;DHT22;2632;51.666;7.146;2024-03-29T03:45:36;10.80;76.20
5226;DHT22;2632;51.666;7.146;2024-03-29T03:48:03;10.80;76.90
5226;DHT22;2632;51.666;7.146;2024-03-29T03:50:29;10.70;76.10
5226;DHT22;2632;51.666;7.146;2024-03-29T03:52:55;10.60;76.40
5226;DHT22;2632;51.666;7.146;2024-03-29T03:55:20;10.60;77.40
5226;DHT22;2632;51.666;7.146;2024-03-29T03:57:46;10.70;77.30
5226;DHT22;2632;51.666;7.146;2024-03-29T04:00:12;10.80;77.80
5226;DHT22;2632;51.666;7.146;2024-03-29T04:02:38;10.70;76.80
5226;DHT22;2632;51.666;7.146;2024-03-29T04:05:04;10.80;78.40
5226;DHT22;2632;51.666;7.146;2024-03-29T04:07:30;10.70;76.90
5226;DHT22;2632;51.666;7.146;2024-03-29T04:09:55;10.70;78.60
5226;DHT22;2632;51.666;7.146;2024-03-29T04:12:21;10.70;78.10
5226;DHT22;2632;51.666;7.146;2024-03-29T04:14:47;10.50;78.80
5226;DHT22;2632;51.666;7.146;2024-03-29T04:17:12;10.60;80.00
5226;DHT22;2632;51.666;7.146;2024-03-29T04:19:38;10.60;79.90
5226;DHT22;2632;51.666;7.146;2024-03-29T04:22:04;10.70;81.60
5226;DHT22;2632;51.666;7.146;2024-03-29T04:24:29;10.60;82.20
5226;DHT22;2632;51.666;7.146;2024-03-29T04:26:55;10.40;81.30
5226;DHT22;2632;51.666;7.146;2024-03-29T04:29:21;10.30;81.50
5226;DHT22;2632;51.666;7.146;2024-03-29T04:31:47;10.30;85.30
5226;DHT22;2632;51.666;7.146;2024-03-29T04:34:12;10.20;84.90
5226;DHT22;2632;51.666;7.146;2024-03-29T04:36:38;10.20;86.50
5226;DHT22;2632;51.666;7.146;2024-03-29T04:39:04;10.10;85.60
5226;DHT22;2632;51.666;7.146;2024-03-29T04:41:30;10.00;86.60
5226;DHT22;2632;51.666;7.146;2024-03-29T04:44:00;10.00;88.40
5226;DHT22;2632;51.666;7.146;2024-03-29T04:46:30;9.90;90.20
5226;DHT22;2632;51.666;7.146;2024-03-29T04:48:57;9.90;90.10
5226;DHT22;2632;51.666;7.146;2024-03-29T04:51:23;9.80;90.00
5226;DHT22;2632;51.666;7.146;2024-03-29T04:53:48;9.80;90.30
5226;DHT22;2632;51.666;7.146;2024-03-29T04:56:14;9.70;90.50
5226;DHT22;2632;51.666;7.146;2024-03-29T04:58:40;9.70;91.60
5226;DHT22;2632;51.666;7.146;2024-03-29T05:01:06;9.70;91.70
5226;DHT22;2632;51.666;7.146;2024-03-29T05:03:32;9.60;92.10
5226;DHT22;2632;51.666;7.146;2024-03-29T05:05:58;9.60;92.20
5226;DHT22;2632;51.666;7.146;2024-03-29T05:08:24;9.50;92.30
5226;DHT22;2632;51.666;7.146;2024-03-29T05:10:50;9.50;92.70
5226;DHT22;2632;51.666;7.146;2024-03-29T05:13:16;9.30;93.00
5226;DHT22;2632;51.666;7.146;2024-03-29T05:15:43;9.30;93.10
5226;DHT22;2632;51.666;7.146;2024-03-29T05:18:09;9.20;93.20
5226;DHT22;2632;51.666;7.146;2024-03-29T05:20:34;9.30;93.30
5226;DHT22;2632;51.666;7.146;2024-03-29T05:23:00;9.20;93.30
5226;DHT22;2632;51.666;7.146;2024-03-29T05:25:26;9.20;93.50
5226;DHT22;2632;51.666;7.146;2024-03-29T05:27:52;9.20;93.50
5226;DHT22;2632;51.666;7.146;2024-03-29T05:30:18;9.20;93.80
5226;DHT22;2632;51.666;7.146;2024-03-29T05:32:45;9.20;93.80
5226;DHT22;2632;51.666;7.146;2024-03-29T05:35:11;9.10;93.80
5226;DHT22;2632;51.666;7.146;2024-03-29T05:37:37;9.20;93.40
5226;DHT22;2632;51.666;7.146;2024-03-29T05:40:03;9.10;93.50
5226;DHT22;2632;51.666;7.146;2024-03-29T05:42:33;8.90;93.80
5226;DHT22;2632;51.666;7.146;2024-03-29T05:45:04;9.00;94.00
5226;DHT22;2632;51.666;7.146;2024-03-29T05:47:31;8.90;94.30
5226;DHT22;2632;51.666;7.146;2024-03-29T05:49:57;8.80;94.40
5226;DHT22;2632;51.666;7.146;2024-03-29T05:52:22;8.90;94.30
5226;DHT22;2632;51.666;7.146;2024-03-29T05:54:49;9.00;94.10
5226;DHT22;2632;51.666;7.146;2024-03-29T05:57:15;9.10;94.00
5226;DHT22;2632;51.666;7.146;2024-03-29T05:59:41;9.10;94.10
5226;DHT22;2632;51.666;7.146;2024-03-29T06:02:07;9.20;94.00
5226;DHT22;2632;51.666;7.146;2024-03-29T06:04:33;9.10;94.00
5226;DHT22;2632;51.666;7.146;2024-03-29T06:07:03;9.10;94.00
5226;DHT22;2632;51.666;7.146;2024-03-29T06:09:29;9.10;94.00
5226;DHT22;2632;51.666;7.146;2024-03-29T06:11:58;9.10;94.20
5226;DHT22;2632;51.666;7.146;2024-03-29T06:14:24;9.00;94.50
5226;DHT22;2632;51.666;7.146;2024-03-29T06:17:08;9.00;94.10
5226;DHT22;2632;51.666;7.146;2024-03-29T06:19:54;8.90;94.40
5226;DHT22;2632;51.666;7.146;2024-03-29T06:22:25;8.90;94.70
5226;DHT22;2632;51.666;7.146;2024-03-29T06:24:54;8.70;94.70
5226;DHT22;2632;51.666;7.146;2024-03-29T06:27:24;8.80;95.00
5226;DHT22;2632;51.666;7.146;2024-03-29T06:29:50;8.80;94.80
5226;DHT22;2632;51.666;7.146;2024-03-29T06:32:17;8.90;94.70
5226;DHT22;2632;51.666;7.146;2024-03-29T06:34:44;8.80;94.60
5226;DHT22;2632;51.666;7.146;2024-03-29T06:37:11;8.90;94.80
5226;DHT22;2632;51.666;7.146;2024-03-29T06:39:36;8.90;94.80
5226;DHT22;2632;51.666;7.146;2024-03-29T06:42:02;9.00;94.50
5226;DHT22;2632;51.666;7.146;2024-03-29T06:44:29;8.90;94.60
5226;DHT22;2632;51.666;7.146;2024-03-29T06:46:55;8.80;94.60
5226;DHT22;2632;51.666;7.146;2024-03-29T06:49:20;8.90;95.00
5226;DHT22;2632;51.666;7.146;2024-03-29T06:51:46;9.00;95.00
5226;DHT22;2632;51.666;7.146;2024-03-29T06:54:12;8.90;95.00
5226;DHT22;2632;51.666;7.146;2024-03-29T06:56:38;8.90;94.90
5226;DHT22;2632;51.666;7.146;2024-03-29T06:59:04;9.20;94.90
5226;DHT22;2632;51.666;7.146;2024-03-29T07:01:29;9.10;94.60
5226;DHT22;2632;51.666;7.146;2024-03-29T07:03:56;9.00;94.70
5226;DHT22;2632;51.666;7.146;2024-03-29T07:06:21;9.20;94.40
5226;DHT22;2632;51.666;7.146;2024-03-29T07:08:47;9.10;94.10
5226;DHT22;2632;51.666;7.146;2024-03-29T07:11:13;9.10;94.10
5226;DHT22;2632;51.666;7.146;2024-03-29T07:13:39;9.10;94.40
5226;DHT22;2632;51.666;7.146;2024-03-29T07:16:05;8.90;94.00
5226;DHT22;2632;51.666;7.146;2024-03-29T07:18:32;8.90;94.30
5226;DHT22;2632;51.666;7.146;2024-03-29T07:20:58;8.90;94.40
5226;DHT22;2632;51.666;7.146;2024-03-29T07:23:24;9.00;94.40
5226;DHT22;2632;51.666;7.146;2024-03-29T07:26:01;9.10;94.10
5226;DHT22;2632;51.666;7.146;2024-03-29T07:28:27;10.60;94.40
5226;DHT22;2632;51.666;7.146;2024-03-29T07:30:53;9.00;94.20
5226;DHT22;2632;51.666;7.146;2024-03-29T07:33:23;9.00;94.20
5226;DHT22;2632;51.666;7.146;2024-03-29T07:35:55;9.00;94.40
5226;DHT22;2632;51.666;7.146;2024-03-29T07:38:21;9.00;94.20
5226;DHT22;2632;51.666;7.146;2024-03-29T07:40:52;9.00;94.40
5226;DHT22;2632;51.666;7.146;2024-03-29T07:43:18;9.00;94.10
5226;DHT22;2632;51.666;7.146;2024-03-29T07:45:45;9.20;94.10
5226;DHT22;2632;51.666;7.146;2024-03-29T07:48:17;9.20;94.00
5226;DHT22;2632;51.666;7.146;2024-03-29T07:50:44;9.20;94.40
5226;DHT22;2632;51.666;7.146;2024-03-29T07:53:10;9.20;94.30
5226;DHT22;2632;51.666;7.146;2024-03-29T07:55:38;9.20;94.10
5226;DHT22;2632;51.666;7.146;2024-03-29T07:58:04;9.10;94.30
5226;DHT22;2632;51.666;7.146;2024-03-29T08:00:34;9.20;94.30
5226;DHT22;2632;51.666;7.146;2024-03-29T08:03:00;9.50;93.80
5226;DHT22;2632;51.666;7.146;2024-03-29T08:05:27;9.50;93.50
5226;DHT22;2632;51.666;7.146;2024-03-29T08:07:53;13.50;94.20
5226;DHT22;2632;51.666;7.146;2024-03-29T08:10:20;9.70;93.50
5226;DHT22;2632;51.666;7.146;2024-03-29T08:12:46;9.80;93.60
5226;DHT22;2632;51.666;7.146;2024-03-29T08:15:12;9.80;93.60
5226;DHT22;2632;51.666;7.146;2024-03-29T08:17:37;9.90;93.30
5226;DHT22;2632;51.666;7.146;2024-03-29T08:20:04;9.90;93.10
5226;DHT22;2632;51.666;7.146;2024-03-29T08:22:30;10.00;93.10
5226;DHT22;2632;51.666;7.146;2024-03-29T08:24:59;10.10;93.10
5226;DHT22;2632;51.666;7.146;2024-03-29T08:27:26;10.20;93.10
5226;DHT22;2632;51.666;7.146;2024-03-29T08:29:52;10.40;93.00
5226;DHT22;2632;51.666;7.146;2024-03-29T08:32:18;10.50;92.80
5226;DHT22;2632;51.666;7.146;2024-03-29T08:34:44;10.50;93.00
5226;DHT22;2632;51.666;7.146;2024-03-29T08:37:10;10.80;92.90
5226;DHT22;2632;51.666;7.146;2024-03-29T08:39:36;11.00;92.60
5226;DHT22;2632;51.666;7.146;2024-03-29T08:42:04;11.00;92.40
5226;DHT22;2632;51.666;7.146;2024-03-29T08:44:34;11.20;92.50
5226;DHT22;2632;51.666;7.146;2024-03-29T08:47:01;11.40;92.00
5226;DHT22;2632;51.666;7.146;2024-03-29T08:49:27;11.30;92.20
5226;DHT22;2632;51.666;7.146;2024-03-29T08:51:53;11.30;92.50
5226;DHT22;2632;51.666;7.146;2024-03-29T08:54:19;11.50;92.40
5226;DHT22;2632;51.666;7.146;2024-03-29T08:56:45;11.50;92.40
5226;DHT22;2632;51.666;7.146;2024-03-29T08:59:11;11.60;92.80
5226;DHT22;2632;51.666;7.146;2024-03-29T09:01:44;11.40;92.70
5226;DHT22;2632;51.666;7.146;2024-03-29T09:04:10;11.40;92.70
5226;DHT22;2632;51.666;7.146;2024-03-29T09:06:37;11.50;92.80
5226;DHT22;2632;51.666;7.146;2024-03-29T09:09:07;11.60;92.90
5226;DHT22;2632;51.666;7.146;2024-03-29T09:11:33;11.60;93.00
5226;DHT22;2632;51.666;7.146;2024-03-29T09:13:59;11.60;92.90
5226;DHT22;2632;51.666;7.146;2024-03-29T09:16:25;11.50;93.40
5226;DHT22;2632;51.666;7.146;2024-03-29T09:18:51;11.40;93.70
5226;DHT22;2632;51.666;7.146;2024-03-29T09:21:18;11.50;94.10
5226;DHT22;2632;51.666;7.146;2024-03-29T09:23:45;11.30;93.90
5226;DHT22;2632;51.666;7.146;2024-03-29T09:26:11;11.30;94.30
5226;DHT22;2632;51.666;7.146;2024-03-29T09:28:37;11.20;94.40
5226;DHT22;2632;51.666;7.146;2024-03-29T09:31:03;11.20;94.40
5226;DHT22;2632;51.666;7.146;2024-03-29T09:33:29;11.20;94.20
5226;DHT22;2632;51.666;7.146;2024-03-29T09:35:55;11.30;94.30
5226;DHT22;2632;51.666;7.146;2024-03-29T09:38:21;11.40;94.40
5226;DHT22;2632;51.666;7.146;2024-03-29T09:41:17;11.40;94.20
5226;DHT22;2632;51.666;7.146;2024-03-29T09:43:43;11.50;94.10
5226;DHT22;2632;51.666;7.146;2024-03-29T09:46:16;11.50;94.40
5226;DHT22;2632;51.666;7.146;2024-03-29T09:48:43;11.50;94.30
5226;DHT22;2632;51.666;7.146;2024-03-29T09:51:11;11.40;94.40
5226;DHT22;2632;51.666;7.146;2024-03-29T09:53:41;11.40;94.50
5226;DHT22;2632;51.666;7.146;2024-03-29T09:56:07;11.50;94.40
5226;DHT22;2632;51.666;7.146;2024-03-29T09:58:34;11.60;94.20
5226;DHT22;2632;51.666;7.146;2024-03-29T10:01:02;11.50;94.40
5226;DHT22;2632;51.666;7.146;2024-03-29T10:03:29;11.50;94.00
5226;DHT22;2632;51.666;7.146;2024-03-29T10:05:59;11.50;94.30
5226;DHT22;2632;51.666;7.146;2024-03-29T10:08:29;11.40;94.50
5226;DHT22;2632;51.666;7.146;2024-03-29T10:10:56;11.50;94.70
5226;DHT22;2632;51.666;7.146;2024-03-29T10:13:22;11.50;94.50
5226;DHT22;2632;51.666;7.146;2024-03-29T10:15:52;11.60;94.20
5226;DHT22;2632;51.666;7.146;2024-03-29T10:18:22;11.60;93.90
5226;DHT22;2632;51.666;7.146;2024-03-29T10:20:59;11.60;94.20
5226;DHT22;2632;51.666;7.146;2024-03-29T10:23:26;11.80;94.10
5226;DHT22;2632;51.666;7.146;2024-03-29T10:25:52;12.00;93.70
5226;DHT22;2632;51.666;7.146;2024-03-29T10:28:19;12.30;93.30
5226;DHT22;2632;51.666;7.146;2024-03-29T10:30:44;12.40;93.20
5226;DHT22;2632;51.666;7.146;2024-03-29T10:33:16;12.70;92.60
5226;DHT22;2632;51.666;7.146;2024-03-29T10:35:45;12.90;92.60
5226;DHT22;2632;51.666;7.146;2024-03-29T10:38:12;13.00;92.50
5226;DHT22;2632;51.666;7.146;2024-03-29T10:40:38;12.80;92.50
5226;DHT22;2632;51.666;7.146;2024-03-29T10:43:09;13.10;92.60
5226;DHT22;2632;51.666;7.146;2024-03-29T10:45:38;13.00;92.50
5226;DHT22;2632;51.666;7.146;2024-03-29T10:48:05;13.20;92.20
5226;DHT22;2632;51.666;7.146;2024-03-29T10:50:37;13.50;91.50
5226;DHT22;2632;51.666;7.146;2024-03-29T10:53:05;13.60;90.90
5226;DHT22;2632;51.666;7.146;2024-03-29T10:55:33;13.40;91.10
5226;DHT22;2632;51.666;7.146;2024-03-29T10:58:00;13.40;91.40
5226;DHT22;2632;51.666;7.146;2024-03-29T11:00:33;13.30;91.60
5226;DHT22;2632;51.666;7.146;2024-03-29T11:03:22;13.20;91.40
5226;DHT22;2632;51.666;7.146;2024-03-29T11:05:55;13.10;91.30
5226;DHT22;2632;51.666;7.146;2024-03-29T11:08:26;13.40;91.50
5226;DHT22;2632;51.666;7.146;2024-03-29T11:10:58;13.30;91.10
5226;DHT22;2632;51.666;7.146;2024-03-29T11:13:52;13.40;91.80
5226;DHT22;2632;51.666;7.146;2024-03-29T11:16:18;13.30;91.60
5226;DHT22;2632;51.666;7.146;2024-03-29T11:18:47;13.10;91.30
5226;DHT22;2632;51.666;7.146;2024-03-29T11:21:15;13.00;91.50
5226;DHT22;2632;51.666;7.146;2024-03-29T11:23:53;12.90;91.80
5226;DHT22;2632;51.666;7.146;2024-03-29T11:26:19;13.20;91.80
5226;DHT22;2632;51.666;7.146;2024-03-29T11:28:50;14.00;91.10
5226;DHT22;2632;51.666;7.146;2024-03-29T11:31:16;14.60;89.70
5226;DHT22;2632;51.666;7.146;2024-03-29T11:36:18;14.70;88.70
5226;DHT22;2632;51.666;7.146;2024-03-29T11:38:48;14.70;88.90
5226;DHT22;2632;51.666;7.146;2024-03-29T11:41:19;14.70;88.00
5226;DHT22;2632;51.666;7.146;2024-03-29T11:43:47;15.40;86.70
5226;DHT22;2632;51.666;7.146;2024-03-29T11:46:14;16.90;83.10
5226;DHT22;2632;51.666;7.146;2024-03-29T11:48:41;17.90;79.80
5226;DHT22;2632;51.666;7.146;2024-03-29T11:51:08;18.70;78.70
5226;DHT22;2632;51.666;7.146;2024-03-29T11:53:36;19.00;77.10
5226;DHT22;2632;51.666;7.146;2024-03-29T11:56:03;18.40;75.90
5226;DHT22;2632;51.666;7.146;2024-03-29T11:58:31;18.70;77.50
5226;DHT22;2632;51.666;7.146;2024-03-29T12:00:58;19.40;74.40
5226;DHT22;2632;51.666;7.146;2024-03-29T12:03:29;18.70;75.10
5226;DHT22;2632;51.666;7.146;2024-03-29T12:05:57;18.60;77.20
5226;DHT22;2632;51.666;7.146;2024-03-29T12:08:31;18.20;77.90
5226;DHT22;2632;51.666;7.146;2024-03-29T12:10:58;17.50;78.90
5226;DHT22;2632;51.666;7.146;2024-03-29T12:13:24;16.90;79.50
5226;DHT22;2632;51.666;7.146;2024-03-29T12:15:50;16.40;81.00
5226;DHT22;2632;51.666;7.146;2024-03-29T12:18:16;16.10;83.10
5226;DHT22;2632;51.666;7.146;2024-03-29T12:20:42;15.80;83.80
5226;DHT22;2632;51.666;7.146;2024-03-29T12:23:16;15.60;84.50
5226;DHT22;2632;51.666;7.146;2024-03-29T12:25:43;15.30;85.60
5226;DHT22;2632;51.666;7.146;2024-03-29T12:28:10;15.30;86.10
5226;DHT22;2632;51.666;7.146;2024-03-29T12:30:37;15.20;86.60
5226;DHT22;2632;51.666;7.146;2024-03-29T12:33:04;15.20;86.20
5226;DHT22;2632;51.666;7.146;2024-03-29T12:35:33;15.10;84.30
5226;DHT22;2632;51.666;7.146;2024-03-29T12:38:00;14.90;84.20
5226;DHT22;2632;51.666;7.146;2024-03-29T12:40:28;15.00;86.10
5226;DHT22;2632;51.666;7.146;2024-03-29T12:42:56;15.20;83.80
5226;DHT22;2632;51.666;7.146;2024-03-29T12:45:22;15.40;84.00
5226;DHT22;2632;51.666;7.146;2024-03-29T12:47:49;15.40;82.80
5226;DHT22;2632;51.666;7.146;2024-03-29T12:50:32;15.70;83.60
5226;DHT22;2632;51.666;7.146;2024-03-29T12:52:59;15.70;81.40
5226;DHT22;2632;51.666;7.146;2024-03-29T12:55:27;15.60;81.50
5226;DHT22;2632;51.666;7.146;2024-03-29T12:57:57;15.60;81.30
5226;DHT22;2632;51.666;7.146;2024-03-29T13:00:26;15.60;80.50
5226;DHT22;2632;51.666;7.146;2024-03-29T13:02:52;15.90;80.30
5226;DHT22;2632;51.666;7.146;2024-03-29T13:05:17;16.20;79.80
5226;DHT22;2632;51.666;7.146;2024-03-29T13:07:43;16.50;79.10
5226;DHT22;2632;51.666;7.146;2024-03-29T13:10:09;16.80;76.60
5226;DHT22;2632;51.666;7.146;2024-03-29T13:12:46;17.10;77.40
5226;DHT22;2632;51.666;7.146;2024-03-29T13:15:19;17.50;74.90
5226;DHT22;2632;51.666;7.146;2024-03-29T13:17:45;18.30;75.20
5226;DHT22;2632;51.666;7.146;2024-03-29T13:20:13;20.10;70.90
5226;DHT22;2632;51.666;7.146;2024-03-29T13:22:39;21.20;66.00
5226;DHT22;2632;51.666;7.146;2024-03-29T13:25:08;21.80;65.60
5226;DHT22;2632;51.666;7.146;2024-03-29T13:27:36;21.80;65.80
5226;DHT22;2632;51.666;7.146;2024-03-29T13:30:04;21.00;64.00
5226;DHT22;2632;51.666;7.146;2024-03-29T13:32:30;20.70;67.50
5226;DHT22;2632;51.666;7.146;2024-03-29T13:34:59;19.90;66.60
5226;DHT22;2632;51.666;7.146;2024-03-29T13:37:25;20.50;66.50
5226;DHT22;2632;51.666;7.146;2024-03-29T13:39:54;20.60;65.10
5226;DHT22;2632;51.666;7.146;2024-03-29T13:42:20;20.60;61.30
5226;DHT22;2632;51.666;7.146;2024-03-29T13:44:49;19.70;64.80
5226;DHT22;2632;51.666;7.146;2024-03-29T13:47:15;19.30;65.10
5226;DHT22;2632;51.666;7.146;2024-03-29T13:49:42;19.00;64.50
5226;DHT22;2632;51.666;7.146;2024-03-29T13:52:08;19.00;65.80
5226;DHT22;2632;51.666;7.146;2024-03-29T13:54:34;19.10;65.70
5226;DHT22;2632;51.666;7.146;2024-03-29T13:57:00;20.00;64.20
5226;DHT22;2632;51.666;7.146;2024-03-29T13:59:27;20.00;62.80
5226;DHT22;2632;51.666;7.146;2024-03-29T14:01:53;19.60;64.20
5226;DHT22;2632;51.666;7.146;2024-03-29T14:04:18;19.00;64.90
5226;DHT22;2632;51.666;7.146;2024-03-29T14:06:44;18.70;64.80
5226;DHT22;2632;51.666;7.146;2024-03-29T14:09:10;18.80;64.50
5226;DHT22;2632;51.666;7.146;2024-03-29T14:11:36;19.30;64.10
5226;DHT22;2632;51.666;7.146;2024-03-29T14:14:01;19.60;63.40
5226;DHT22;2632;51.666;7.146;2024-03-29T14:16:27;19.00;63.90
5226;DHT22;2632;51.666;7.146;2024-03-29T14:18:53;18.60;64.70
5226;DHT22;2632;51.666;7.146;2024-03-29T14:21:19;18.70;65.30
5226;DHT22;2632;51.666;7.146;2024-03-29T14:23:44;18.10;66.20
5226;DHT22;2632;51.666;7.146;2024-03-29T14:26:10;17.90;66.60
5226;DHT22;2632;51.666;7.146;2024-03-29T14:28:36;17.70;67.10
5226;DHT22;2632;51.666;7.146;2024-03-29T14:31:02;17.60;67.80
5226;DHT22;2632;51.666;7.146;2024-03-29T14:33:28;17.30;66.90
5226;DHT22;2632;51.666;7.146;2024-03-29T14:35:53;17.40;67.30
5226;DHT22;2632;51.666;7.146;2024-03-29T14:38:19;17.30;67.80
5226;DHT22;2632;51.666;7.146;2024-03-29T14:40:46;17.40;66.30
5226;DHT22;2632;51.666;7.146;2024-03-29T14:43:12;17.20;66.20
5226;DHT22;2632;51.666;7.146;2024-03-29T14:45:41;17.20;66.90
5226;DHT22;2632;51.666;7.146;2024-03-29T14:48:07;17.30;66.90
5226;DHT22;2632;51.666;7.146;2024-03-29T14:50:33;17.40;67.20
5226;DHT22;2632;51.666;7.146;2024-03-29T14:52:59;17.30;66.30
5226;DHT22;2632;51.666;7.146;2024-03-29T14:55:24;17.30;67.50
5226;DHT22;2632;51.666;7.146;2024-03-29T14:57:52;17.50;66.30
5226;DHT22;2632;51.666;7.146;2024-03-29T15:00:19;17.40;64.90
5226;DHT22;2632;51.666;7.146;2024-03-29T15:02:45;17.30;66.10
5226;DHT22;2632;51.666;7.146;2024-03-29T15:05:12;17.30;66.40
5226;DHT22;2632;51.666;7.146;2024-03-29T15:07:38;17.40;66.00
5226;DHT22;2632;51.666;7.146;2024-03-29T15:10:04;17.50;66.90
5226;DHT22;2632;51.666;7.146;2024-03-29T15:12:36;17.50;68.90
5226;DHT22;2632;51.666;7.146;2024-03-29T15:15:03;17.40;71.10
5226;DHT22;2632;51.666;7.146;2024-03-29T15:17:29;17.00;72.40
5226;DHT22;2632;51.666;7.146;2024-03-29T15:19:55;16.80;74.40
5226;DHT22;2632;51.666;7.146;2024-03-29T15:22:20;16.60;74.60
5226;DHT22;2632;51.666;7.146;2024-03-29T15:24:46;18.50;76.40
5226;DHT22;2632;51.666;7.146;2024-03-29T15:27:12;16.50;75.80
5226;DHT22;2632;51.666;7.146;2024-03-29T15:30:14;16.50;76.00
5226;DHT22;2632;51.666;7.146;2024-03-29T15:32:40;16.30;75.80
5226;DHT22;2632;51.666;7.146;2024-03-29T15:35:06;16.40;76.00
5226;DHT22;2632;51.666;7.146;2024-03-29T15:37:32;16.40;76.30
5226;DHT22;2632;51.666;7.146;2024-03-29T15:39:58;16.40;76.00
5226;DHT22;2632;51.666;7.146;2024-03-29T15:42:24;16.30;76.20
5226;DHT22;2632;51.666;7.146;2024-03-29T15:44:50;16.20;76.40
5226;DHT22;2632;51.666;7.146;2024-03-29T15:47:16;16.20;76.40
5226;DHT22;2632;51.666;7.146;2024-03-29T15:49:42;16.20;75.70
5226;DHT22;2632;51.666;7.146;2024-03-29T15:52:08;16.20;76.50
5226;DHT22;2632;51.666;7.146;2024-03-29T15:54:35;16.20;75.60
5226;DHT22;2632;51.666;7.146;2024-03-29T15:57:01;16.20;76.30
5226;DHT22;2632;51.666;7.146;2024-03-29T15:59:27;16.10;76.40
5226;DHT22;2632;51.666;7.146;2024-03-29T16:01:53;16.00;77.30
5226;DHT22;2632;51.666;7.146;2024-03-29T16:04:20;15.90;77.40
5226;DHT22;2632;51.666;7.146;2024-03-29T16:06:46;15.80;77.80
5226;DHT22;2632;51.666;7.146;2024-03-29T16:09:13;15.60;77.60